sensor_id;sensor_type;location;lat;lon;timestamp;P1;durP1;ratioP1;P2;durP2;ratioP2
75129;SDS011;63703;44.716;37.846;2023-04-21T00:01:31;4.07;;;1.35;;
75129;SDS011;63703;44.716;37.846;2023-04-21T00:03:58;2.95;;;0.73;;
75129;SDS011;63703;44.716;37.846;2023-04-21T00:06:25;2.42;;;1.30;;
75129;SDS011;63703;44.716;37.846;2023-04-21T00:08:52;6.57;;;1.60;;
75129;SDS011;63703;44.716;37.846;2023-04-21T00:11:19;2.72;;;1.05;;
75129;SDS011;63703;44.716;37.846;2023-04-21T00:13:45;3.00;;;0.98;;
75129;SDS011;63703;44.716;37.846;2023-04-21T00:16:11;3.38;;;1.95;;
75129;SDS011;63703;44.716;37.846;2023-04-21T00:18:36;5.38;;;1.35;;
75129;SDS011;63703;44.716;37.846;2023-04-21T00:21:02;3.35;;;1.33;;
75129;SDS011;63703;44.716;37.846;2023-04-21T00:23:29;2.30;;;1.00;;
75129;SDS011;63703;44.716;37.846;2023-04-21T00:25:55;4.03;;;1.45;;
75129;SDS011;63703;44.716;37.846;2023-04-21T00:28:21;3.50;;;1.90;;
75129;SDS011;63703;44.716;37.846;2023-04-21T00:30:48;4.00;;;1.75;;
75129;SDS011;63703;44.716;37.846;2023-04-21T00:33:14;5.78;;;1.92;;
75129;SDS011;63703;44.716;37.846;2023-04-21T00:35:40;1.98;;;1.27;;
75129;SDS011;63703;44.716;37.846;2023-04-21T00:38:06;2.33;;;1.38;;
75129;SDS011;63703;44.716;37.846;2023-04-21T00:40:32;3.55;;;1.23;;
75129;SDS011;63703;44.716;37.846;2023-04-21T00:42:58;2.22;;;1.17;;
75129;SDS011;63703;44.716;37.846;2023-04-21T00:45:27;2.67;;;1.42;;
75129;SDS011;63703;44.716;37.846;2023-04-21T00:47:55;2.13;;;1.00;;
75129;SDS011;63703;44.716;37.846;2023-04-21T00:50:21;2.38;;;1.55;;
75129;SDS011;63703;44.716;37.846;2023-04-21T00:52:47;2.92;;;1.23;;
75129;SDS011;63703;44.716;37.846;2023-04-21T00:55:13;3.08;;;0.80;;
75129;SDS011;63703;44.716;37.846;2023-04-21T00:57:41;5.90;;;1.48;;
75129;SDS011;63703;44.716;37.846;2023-04-21T01:00:08;3.03;;;1.67;;
75129;SDS011;63703;44.716;37.846;2023-04-21T01:02:35;2.30;;;1.00;;
75129;SDS011;63703;44.716;37.846;2023-04-21T01:05:05;4.72;;;1.42;;
75129;SDS011;63703;44.716;37.846;2023-04-21T01:07:33;3.40;;;1.30;;
75129;SDS011;63703;44.716;37.846;2023-04-21T01:10:00;2.95;;;1.30;;
75129;SDS011;63703;44.716;37.846;2023-04-21T01:12:28;4.47;;;2.17;;
75129;SDS011;63703;44.716;37.846;2023-04-21T01:14:57;3.38;;;1.83;;
75129;SDS011;63703;44.716;37.846;2023-04-21T01:17:23;6.00;;;1.58;;
75129;SDS011;63703;44.716;37.846;2023-04-21T01:19:50;3.42;;;1.77;;
75129;SDS011;63703;44.716;37.846;2023-04-21T01:22:21;4.82;;;1.33;;
75129;SDS011;63703;44.716;37.846;2023-04-21T01:24:47;5.32;;;1.35;;
75129;SDS011;63703;44.716;37.846;2023-04-21T01:27:17;3.83;;;1.58;;
75129;SDS011;63703;44.716;37.846;2023-04-21T01:29:47;2.90;;;1.77;;
75129;SDS011;63703;44.716;37.846;2023-04-21T01:32:16;4.57;;;1.35;;
75129;SDS011;63703;44.716;37.846;2023-04-21T01:35:00;5.00;;;1.60;;
75129;SDS011;63703;44.716;37.846;2023-04-21T01:37:27;3.38;;;1.60;;
75129;SDS011;63703;44.716;37.846;2023-04-21T01:39:56;2.88;;;1.45;;
75129;SDS011;63703;44.716;37.846;2023-04-21T01:42:24;5.00;;;1.05;;
75129;SDS011;63703;44.716;37.846;2023-04-21T01:44:52;5.63;;;1.13;;
75129;SDS011;63703;44.716;37.846;2023-04-21T01:47:18;3.30;;;1.58;;
75129;SDS011;63703;44.716;37.846;2023-04-21T01:49:45;4.70;;;0.93;;
75129;SDS011;63703;44.716;37.846;2023-04-21T01:52:11;3.65;;;1.27;;
75129;SDS011;63703;44.716;37.846;2023-04-21T01:54:37;3.20;;;2.03;;
75129;SDS011;63703;44.716;37.846;2023-04-21T01:57:03;3.50;;;1.80;;
75129;SDS011;63703;44.716;37.846;2023-04-21T01:59:30;4.82;;;2.08;;
75129;SDS011;63703;44.716;37.846;2023-04-21T02:01:56;3.42;;;1.90;;
75129;SDS011;63703;44.716;37.846;2023-04-21T02:04:21;6.22;;;1.73;;
75129;SDS011;63703;44.716;37.846;2023-04-21T02:06:47;4.82;;;1.40;;
75129;SDS011;63703;44.716;37.846;2023-04-21T02:09:13;2.95;;;1.63;;
75129;SDS011;63703;44.716;37.846;2023-04-21T02:11:40;3.30;;;0.93;;
75129;SDS011;63703;44.716;37.846;2023-04-21T02:14:06;5.10;;;1.75;;
75129;SDS011;63703;44.716;37.846;2023-04-21T02:16:32;3.47;;;1.60;;
75129;SDS011;63703;44.716;37.846;2023-04-21T02:18:59;3.38;;;2.10;;
75129;SDS011;63703;44.716;37.846;2023-04-21T02:21:26;3.83;;;1.80;;
75129;SDS011;63703;44.716;37.846;2023-04-21T02:23:52;6.97;;;1.63;;
75129;SDS011;63703;44.716;37.846;2023-04-21T02:26:18;4.68;;;2.17;;
75129;SDS011;63703;44.716;37.846;2023-04-21T02:28:44;5.65;;;2.50;;
75129;SDS011;63703;44.716;37.846;2023-04-21T02:31:10;8.05;;;1.52;;
75129;SDS011;63703;44.716;37.846;2023-04-21T02:33:36;3.28;;;1.42;;
75129;SDS011;63703;44.716;37.846;2023-04-21T02:36:02;4.25;;;1.13;;
75129;SDS011;63703;44.716;37.846;2023-04-21T02:38:28;8.15;;;2.15;;
75129;SDS011;63703;44.716;37.846;2023-04-21T02:40:55;6.03;;;1.75;;
75129;SDS011;63703;44.716;37.846;2023-04-21T02:43:22;12.63;;;5.90;;
75129;SDS011;63703;44.716;37.846;2023-04-21T02:45:48;8.50;;;2.33;;
75129;SDS011;63703;44.716;37.846;2023-04-21T02:48:14;4.65;;;2.15;;
75129;SDS011;63703;44.716;37.846;2023-04-21T02:50:43;7.97;;;2.30;;
75129;SDS011;63703;44.716;37.846;2023-04-21T02:53:08;5.82;;;2.00;;
75129;SDS011;63703;44.716;37.846;2023-04-21T02:55:34;5.40;;;2.33;;
75129;SDS011;63703;44.716;37.846;2023-04-21T02:58:01;4.88;;;3.33;;
75129;SDS011;63703;44.716;37.846;2023-04-21T03:00:27;5.18;;;3.28;;
75129;SDS011;63703;44.716;37.846;2023-04-21T03:02:53;5.95;;;3.05;;
75129;SDS011;63703;44.716;37.846;2023-04-21T03:05:19;6.63;;;2.67;;
75129;SDS011;63703;44.716;37.846;2023-04-21T03:07:45;4.50;;;1.60;;
75129;SDS011;63703;44.716;37.846;2023-04-21T03:10:11;8.10;;;1.65;;
75129;SDS011;63703;44.716;37.846;2023-04-21T03:12:37;7.47;;;2.75;;
75129;SDS011;63703;44.716;37.846;2023-04-21T03:15:03;8.82;;;2.55;;
75129;SDS011;63703;44.716;37.846;2023-04-21T03:17:29;6.07;;;2.78;;
75129;SDS011;63703;44.716;37.846;2023-04-21T03:19:55;4.72;;;2.40;;
75129;SDS011;63703;44.716;37.846;2023-04-21T03:22:21;5.93;;;2.90;;
75129;SDS011;63703;44.716;37.846;2023-04-21T03:24:47;6.93;;;2.35;;
75129;SDS011;63703;44.716;37.846;2023-04-21T03:27:13;7.90;;;2.53;;
75129;SDS011;63703;44.716;37.846;2023-04-21T03:29:39;5.97;;;2.67;;
75129;SDS011;63703;44.716;37.846;2023-04-21T03:32:05;5.40;;;2.33;;
75129;SDS011;63703;44.716;37.846;2023-04-21T03:34:31;6.40;;;2.45;;
75129;SDS011;63703;44.716;37.846;2023-04-21T03:36:59;4.85;;;2.05;;
75129;SDS011;63703;44.716;37.846;2023-04-21T03:39:25;6.63;;;2.88;;
75129;SDS011;63703;44.716;37.846;2023-04-21T03:41:52;6.53;;;3.58;;
75129;SDS011;63703;44.716;37.846;2023-04-21T03:44:18;7.22;;;1.88;;
75129;SDS011;63703;44.716;37.846;2023-04-21T03:46:44;5.72;;;2.17;;
75129;SDS011;63703;44.716;37.846;2023-04-21T03:49:09;4.60;;;2.40;;
75129;SDS011;63703;44.716;37.846;2023-04-21T03:51:35;6.72;;;2.45;;
75129;SDS011;63703;44.716;37.846;2023-04-21T03:54:01;11.48;;;3.13;;
75129;SDS011;63703;44.716;37.846;2023-04-21T03:56:27;9.95;;;3.58;;
75129;SDS011;63703;44.716;37.846;2023-04-21T03:58:53;8.00;;;3.47;;
75129;SDS011;63703;44.716;37.846;2023-04-21T04:01:19;6.93;;;2.95;;
75129;SDS011;63703;44.716;37.846;2023-04-21T04:03:46;9.05;;;3.47;;
75129;SDS011;63703;44.716;37.846;2023-04-21T04:06:12;9.57;;;3.13;;
75129;SDS011;63703;44.716;37.846;2023-04-21T04:08:37;9.93;;;4.18;;
75129;SDS011;63703;44.716;37.846;2023-04-21T04:11:03;10.20;;;4.07;;
75129;SDS011;63703;44.716;37.846;2023-04-21T04:13:29;8.75;;;3.75;;
75129;SDS011;63703;44.716;37.846;2023-04-21T04:15:56;10.77;;;3.38;;
75129;SDS011;63703;44.716;37.846;2023-04-21T04:18:22;13.30;;;4.53;;
75129;SDS011;63703;44.716;37.846;2023-04-21T04:20:48;7.82;;;3.15;;
75129;SDS011;63703;44.716;37.846;2023-04-21T04:23:14;7.28;;;2.65;;
75129;SDS011;63703;44.716;37.846;2023-04-21T04:25:40;5.43;;;2.95;;
75129;SDS011;63703;44.716;37.846;2023-04-21T04:28:07;9.68;;;3.40;;
75129;SDS011;63703;44.716;37.846;2023-04-21T04:30:33;7.18;;;2.90;;
75129;SDS011;63703;44.716;37.846;2023-04-21T04:33:00;5.85;;;2.88;;
75129;SDS011;63703;44.716;37.846;2023-04-21T04:35:26;4.70;;;2.75;;
75129;SDS011;63703;44.716;37.846;2023-04-21T04:37:52;5.20;;;2.78;;
75129;SDS011;63703;44.716;37.846;2023-04-21T04:40:19;7.78;;;3.15;;
75129;SDS011;63703;44.716;37.846;2023-04-21T04:42:44;9.55;;;2.85;;
75129;SDS011;63703;44.716;37.846;2023-04-21T04:45:13;4.65;;;1.83;;
75129;SDS011;63703;44.716;37.846;2023-04-21T04:47:40;5.95;;;2.20;;
75129;SDS011;63703;44.716;37.846;2023-04-21T04:50:06;3.63;;;1.55;;
75129;SDS011;63703;44.716;37.846;2023-04-21T04:52:33;9.98;;;1.83;;
75129;SDS011;63703;44.716;37.846;2023-04-21T04:54:59;8.10;;;2.60;;
75129;SDS011;63703;44.716;37.846;2023-04-21T04:57:25;7.00;;;2.65;;
75129;SDS011;63703;44.716;37.846;2023-04-21T04:59:54;9.43;;;4.57;;
75129;SDS011;63703;44.716;37.846;2023-04-21T05:02:20;6.43;;;1.77;;
75129;SDS011;63703;44.716;37.846;2023-04-21T05:04:49;7.13;;;2.33;;
75129;SDS011;63703;44.716;37.846;2023-04-21T05:07:15;8.02;;;3.72;;
75129;SDS011;63703;44.716;37.846;2023-04-21T05:09:41;8.27;;;2.78;;
75129;SDS011;63703;44.716;37.846;2023-04-21T05:12:07;7.30;;;2.50;;
75129;SDS011;63703;44.716;37.846;2023-04-21T05:14:33;6.45;;;2.63;;
75129;SDS011;63703;44.716;37.846;2023-04-21T05:16:59;4.93;;;2.03;;
75129;SDS011;63703;44.716;37.846;2023-04-21T05:19:25;6.97;;;2.63;;
75129;SDS011;63703;44.716;37.846;2023-04-21T05:21:51;5.10;;;1.65;;
75129;SDS011;63703;44.716;37.846;2023-04-21T05:24:17;3.92;;;1.55;;
75129;SDS011;63703;44.716;37.846;2023-04-21T05:26:48;5.47;;;1.55;;
75129;SDS011;63703;44.716;37.846;2023-04-21T05:29:14;5.93;;;1.95;;
75129;SDS011;63703;44.716;37.846;2023-04-21T05:31:39;7.82;;;2.35;;
75129;SDS011;63703;44.716;37.846;2023-04-21T05:34:05;4.90;;;1.83;;
75129;SDS011;63703;44.716;37.846;2023-04-21T05:36:31;4.15;;;2.72;;
75129;SDS011;63703;44.716;37.846;2023-04-21T05:38:57;4.13;;;1.25;;
75129;SDS011;63703;44.716;37.846;2023-04-21T05:41:23;5.88;;;2.47;;
75129;SDS011;63703;44.716;37.846;2023-04-21T05:43:49;5.15;;;1.23;;
75129;SDS011;63703;44.716;37.846;2023-04-21T05:46:15;4.93;;;1.05;;
75129;SDS011;63703;44.716;37.846;2023-04-21T05:48:41;10.30;;;1.77;;
75129;SDS011;63703;44.716;37.846;2023-04-21T05:51:10;7.95;;;1.27;;
75129;SDS011;63703;44.716;37.846;2023-04-21T05:53:37;6.20;;;1.05;;
75129;SDS011;63703;44.716;37.846;2023-04-21T05:56:04;3.72;;;1.55;;
75129;SDS011;63703;44.716;37.846;2023-04-21T05:58:30;6.15;;;1.42;;
75129;SDS011;63703;44.716;37.846;2023-04-21T06:00:58;6.35;;;1.80;;
75129;SDS011;63703;44.716;37.846;2023-04-21T06:03:24;7.15;;;2.00;;
75129;SDS011;63703;44.716;37.846;2023-04-21T06:05:53;5.38;;;2.38;;
75129;SDS011;63703;44.716;37.846;2023-04-21T06:08:19;8.15;;;2.67;;
75129;SDS011;63703;44.716;37.846;2023-04-21T06:10:46;5.13;;;1.55;;
75129;SDS011;63703;44.716;37.846;2023-04-21T06:13:12;4.47;;;1.33;;
75129;SDS011;63703;44.716;37.846;2023-04-21T06:15:38;5.55;;;1.52;;
75129;SDS011;63703;44.716;37.846;2023-04-21T06:18:04;5.35;;;3.22;;
75129;SDS011;63703;44.716;37.846;2023-04-21T06:20:30;5.07;;;1.25;;
75129;SDS011;63703;44.716;37.846;2023-04-21T06:22:56;5.38;;;2.20;;
75129;SDS011;63703;44.716;37.846;2023-04-21T06:25:21;4.47;;;1.98;;
75129;SDS011;63703;44.716;37.846;2023-04-21T06:27:47;7.00;;;2.08;;
75129;SDS011;63703;44.716;37.846;2023-04-21T06:30:13;8.55;;;2.58;;
75129;SDS011;63703;44.716;37.846;2023-04-21T06:32:40;4.43;;;1.60;;
75129;SDS011;63703;44.716;37.846;2023-04-21T06:35:06;4.45;;;2.13;;
75129;SDS011;63703;44.716;37.846;2023-04-21T06:37:32;6.30;;;1.05;;
75129;SDS011;63703;44.716;37.846;2023-04-21T06:39:58;6.00;;;2.42;;
75129;SDS011;63703;44.716;37.846;2023-04-21T06:42:24;5.35;;;2.08;;
75129;SDS011;63703;44.716;37.846;2023-04-21T06:44:50;4.65;;;1.05;;
75129;SDS011;63703;44.716;37.846;2023-04-21T06:47:15;9.00;;;1.95;;
75129;SDS011;63703;44.716;37.846;2023-04-21T06:49:54;4.75;;;1.90;;
75129;SDS011;63703;44.716;37.846;2023-04-21T06:52:20;7.35;;;1.70;;
75129;SDS011;63703;44.716;37.846;2023-04-21T06:54:45;9.95;;;1.70;;
75129;SDS011;63703;44.716;37.846;2023-04-21T06:57:14;7.57;;;1.85;;
75129;SDS011;63703;44.716;37.846;2023-04-21T06:59:41;7.28;;;1.85;;
75129;SDS011;63703;44.716;37.846;2023-04-21T07:02:07;6.22;;;1.83;;
75129;SDS011;63703;44.716;37.846;2023-04-21T07:04:33;10.00;;;2.00;;
75129;SDS011;63703;44.716;37.846;2023-04-21T07:06:59;7.13;;;1.90;;
75129;SDS011;63703;44.716;37.846;2023-04-21T07:09:25;6.43;;;1.85;;
75129;SDS011;63703;44.716;37.846;2023-04-21T07:11:53;4.55;;;1.35;;
75129;SDS011;63703;44.716;37.846;2023-04-21T07:14:20;4.93;;;2.03;;
75129;SDS011;63703;44.716;37.846;2023-04-21T07:16:46;6.40;;;2.42;;
75129;SDS011;63703;44.716;37.846;2023-04-21T07:19:12;7.45;;;1.15;;
75129;SDS011;63703;44.716;37.846;2023-04-21T07:21:38;5.20;;;1.77;;
75129;SDS011;63703;44.716;37.846;2023-04-21T07:24:04;6.18;;;1.88;;
75129;SDS011;63703;44.716;37.846;2023-04-21T07:26:30;6.18;;;1.67;;
75129;SDS011;63703;44.716;37.846;2023-04-21T07:28:57;3.60;;;1.90;;
75129;SDS011;63703;44.716;37.846;2023-04-21T07:31:23;3.45;;;1.48;;
75129;SDS011;63703;44.716;37.846;2023-04-21T07:33:50;6.28;;;1.38;;
75129;SDS011;63703;44.716;37.846;2023-04-21T07:36:16;5.45;;;1.27;;
75129;SDS011;63703;44.716;37.846;2023-04-21T07:38:42;6.45;;;2.40;;
75129;SDS011;63703;44.716;37.846;2023-04-21T07:41:12;5.80;;;1.63;;
75129;SDS011;63703;44.716;37.846;2023-04-21T07:43:38;5.55;;;1.25;;
75129;SDS011;63703;44.716;37.846;2023-04-21T07:46:05;4.55;;;1.92;;
75129;SDS011;63703;44.716;37.846;2023-04-21T07:48:31;6.78;;;1.67;;
75129;SDS011;63703;44.716;37.846;2023-04-21T07:50:57;4.18;;;0.98;;
75129;SDS011;63703;44.716;37.846;2023-04-21T07:53:25;7.72;;;3.10;;
75129;SDS011;63703;44.716;37.846;2023-04-21T07:55:52;5.47;;;1.20;;
75129;SDS011;63703;44.716;37.846;2023-04-21T07:58:19;5.70;;;1.65;;
75129;SDS011;63703;44.716;37.846;2023-04-21T08:00:45;6.13;;;2.40;;
75129;SDS011;63703;44.716;37.846;2023-04-21T08:03:11;7.90;;;2.90;;
75129;SDS011;63703;44.716;37.846;2023-04-21T08:05:37;4.57;;;1.02;;
75129;SDS011;63703;44.716;37.846;2023-04-21T08:08:03;6.85;;;1.52;;
75129;SDS011;63703;44.716;37.846;2023-04-21T08:10:30;3.50;;;1.50;;
75129;SDS011;63703;44.716;37.846;2023-04-21T08:12:55;5.68;;;2.05;;
75129;SDS011;63703;44.716;37.846;2023-04-21T08:15:21;7.05;;;1.63;;
75129;SDS011;63703;44.716;37.846;2023-04-21T08:17:47;4.75;;;1.67;;
75129;SDS011;63703;44.716;37.846;2023-04-21T08:20:13;3.97;;;1.83;;
75129;SDS011;63703;44.716;37.846;2023-04-21T08:22:39;8.05;;;1.90;;
75129;SDS011;63703;44.716;37.846;2023-04-21T08:25:05;5.95;;;1.90;;
75129;SDS011;63703;44.716;37.846;2023-04-21T08:27:32;6.38;;;1.98;;
75129;SDS011;63703;44.716;37.846;2023-04-21T08:29:57;9.23;;;2.13;;
75129;SDS011;63703;44.716;37.846;2023-04-21T08:32:24;5.53;;;1.98;;
75129;SDS011;63703;44.716;37.846;2023-04-21T08:34:51;9.27;;;2.33;;
75129;SDS011;63703;44.716;37.846;2023-04-21T08:37:18;8.10;;;2.13;;
75129;SDS011;63703;44.716;37.846;2023-04-21T08:39:44;6.60;;;2.20;;
75129;SDS011;63703;44.716;37.846;2023-04-21T08:42:13;3.45;;;1.17;;
75129;SDS011;63703;44.716;37.846;2023-04-21T08:44:43;4.75;;;2.78;;
75129;SDS011;63703;44.716;37.846;2023-04-21T08:47:10;6.68;;;1.70;;
75129;SDS011;63703;44.716;37.846;2023-04-21T08:49:38;6.25;;;1.65;;
75129;SDS011;63703;44.716;37.846;2023-04-21T08:52:07;10.30;;;2.50;;
75129;SDS011;63703;44.716;37.846;2023-04-21T08:54:33;7.07;;;3.00;;
75129;SDS011;63703;44.716;37.846;2023-04-21T08:57:03;8.30;;;2.53;;
75129;SDS011;63703;44.716;37.846;2023-04-21T08:59:29;7.30;;;3.28;;
75129;SDS011;63703;44.716;37.846;2023-04-21T09:04:41;10.20;;;3.05;;
75129;SDS011;63703;44.716;37.846;2023-04-21T09:07:08;6.18;;;2.60;;
75129;SDS011;63703;44.716;37.846;2023-04-21T09:09:52;7.55;;;2.53;;
75129;SDS011;63703;44.716;37.846;2023-04-21T09:12:20;4.38;;;2.03;;
75129;SDS011;63703;44.716;37.846;2023-04-21T09:14:46;3.08;;;1.90;;
75129;SDS011;63703;44.716;37.846;2023-04-21T09:17:14;3.45;;;1.08;;
75129;SDS011;63703;44.716;37.846;2023-04-21T09:19:41;5.43;;;1.95;;
75129;SDS011;63703;44.716;37.846;2023-04-21T09:22:07;8.73;;;2.90;;
75129;SDS011;63703;44.716;37.846;2023-04-21T09:24:33;4.30;;;2.40;;
75129;SDS011;63703;44.716;37.846;2023-04-21T09:26:59;9.13;;;2.00;;
75129;SDS011;63703;44.716;37.846;2023-04-21T09:29:28;8.02;;;1.83;;
75129;SDS011;63703;44.716;37.846;2023-04-21T09:31:54;7.82;;;2.45;;
75129;SDS011;63703;44.716;37.846;2023-04-21T09:34:21;8.70;;;2.28;;
75129;SDS011;63703;44.716;37.846;2023-04-21T09:37:02;7.95;;;3.75;;
75129;SDS011;63703;44.716;37.846;2023-04-21T09:39:29;7.35;;;3.25;;
75129;SDS011;63703;44.716;37.846;2023-04-21T09:41:56;6.13;;;1.95;;
75129;SDS011;63703;44.716;37.846;2023-04-21T09:44:26;7.82;;;4.18;;
75129;SDS011;63703;44.716;37.846;2023-04-21T09:46:59;7.38;;;2.58;;
75129;SDS011;63703;44.716;37.846;2023-04-21T09:49:28;9.25;;;3.55;;
75129;SDS011;63703;44.716;37.846;2023-04-21T09:51:59;11.23;;;4.97;;
75129;SDS011;63703;44.716;37.846;2023-04-21T09:54:30;14.00;;;5.70;;
75129;SDS011;63703;44.716;37.846;2023-04-21T09:57:00;25.13;;;9.65;;
75129;SDS011;63703;44.716;37.846;2023-04-21T09:59:29;14.73;;;7.70;;
75129;SDS011;63703;44.716;37.846;2023-04-21T10:02:08;20.85;;;8.85;;
75129;SDS011;63703;44.716;37.846;2023-04-21T10:04:35;13.65;;;7.68;;
75129;SDS011;63703;44.716;37.846;2023-04-21T10:07:02;15.88;;;7.70;;
75129;SDS011;63703;44.716;37.846;2023-04-21T10:10:02;18.48;;;9.68;;
75129;SDS011;63703;44.716;37.846;2023-04-21T10:12:23;17.65;;;9.40;;
75129;SDS011;63703;44.716;37.846;2023-04-21T10:14:56;14.50;;;5.78;;
75129;SDS011;63703;44.716;37.846;2023-04-21T10:17:23;14.30;;;6.57;;
75129;SDS011;63703;44.716;37.846;2023-04-21T10:19:51;15.13;;;7.13;;
75129;SDS011;63703;44.716;37.846;2023-04-21T10:22:31;23.10;;;8.25;;
75129;SDS011;63703;44.716;37.846;2023-04-21T10:24:58;17.23;;;6.32;;
75129;SDS011;63703;44.716;37.846;2023-04-21T10:27:35;14.93;;;5.20;;
75129;SDS011;63703;44.716;37.846;2023-04-21T10:30:21;15.45;;;5.68;;
75129;SDS011;63703;44.716;37.846;2023-04-21T10:33:01;19.40;;;5.60;;
75129;SDS011;63703;44.716;37.846;2023-04-21T10:38:32;13.55;;;6.10;;
75129;SDS011;63703;44.716;37.846;2023-04-21T10:41:44;15.55;;;7.65;;
75129;SDS011;63703;44.716;37.846;2023-04-21T10:44:01;13.43;;;5.57;;
75129;SDS011;63703;44.716;37.846;2023-04-21T10:46:45;13.70;;;5.35;;
75129;SDS011;63703;44.716;37.846;2023-04-21T10:49:25;12.25;;;6.13;;
75129;SDS011;63703;44.716;37.846;2023-04-21T10:54:36;20.20;;;7.20;;
75129;SDS011;63703;44.716;37.846;2023-04-21T10:57:07;12.27;;;5.72;;
75129;SDS011;63703;44.716;37.846;2023-04-21T10:59:35;14.27;;;5.18;;
75129;SDS011;63703;44.716;37.846;2023-04-21T11:02:02;11.05;;;5.47;;
75129;SDS011;63703;44.716;37.846;2023-04-21T11:04:29;14.70;;;7.05;;
75129;SDS011;63703;44.716;37.846;2023-04-21T11:07:15;17.05;;;9.05;;
75129;SDS011;63703;44.716;37.846;2023-04-21T11:09:43;17.48;;;6.32;;
75129;SDS011;63703;44.716;37.846;2023-04-21T11:12:11;15.50;;;6.05;;
75129;SDS011;63703;44.716;37.846;2023-04-21T11:14:40;16.25;;;5.85;;
75129;SDS011;63703;44.716;37.846;2023-04-21T11:17:11;18.65;;;5.18;;
75129;SDS011;63703;44.716;37.846;2023-04-21T11:19:46;17.92;;;5.10;;
75129;SDS011;63703;44.716;37.846;2023-04-21T11:22:15;14.95;;;6.45;;
75129;SDS011;63703;44.716;37.846;2023-04-21T11:24:45;17.35;;;6.28;;
75129;SDS011;63703;44.716;37.846;2023-04-21T11:27:12;25.70;;;6.47;;
75129;SDS011;63703;44.716;37.846;2023-04-21T11:29:39;15.48;;;5.63;;
75129;SDS011;63703;44.716;37.846;2023-04-21T11:32:06;17.52;;;5.47;;
75129;SDS011;63703;44.716;37.846;2023-04-21T11:34:33;16.77;;;6.07;;
75129;SDS011;63703;44.716;37.846;2023-04-21T11:37:01;31.88;;;8.98;;
75129;SDS011;63703;44.716;37.846;2023-04-21T11:39:27;24.10;;;9.77;;
75129;SDS011;63703;44.716;37.846;2023-04-21T11:41:53;15.02;;;4.40;;
75129;SDS011;63703;44.716;37.846;2023-04-21T11:44:36;14.93;;;4.63;;
75129;SDS011;63703;44.716;37.846;2023-04-21T11:49:58;13.70;;;2.70;;
75129;SDS011;63703;44.716;37.846;2023-04-21T11:54:57;12.00;;;2.85;;
75129;SDS011;63703;44.716;37.846;2023-04-21T11:57:28;11.77;;;3.53;;
75129;SDS011;63703;44.716;37.846;2023-04-21T12:00:00;12.15;;;3.80;;
75129;SDS011;63703;44.716;37.846;2023-04-21T12:02:30;11.68;;;3.97;;
75129;SDS011;63703;44.716;37.846;2023-04-21T12:05:17;10.45;;;3.80;;
75129;SDS011;63703;44.716;37.846;2023-04-21T12:07:43;12.57;;;3.13;;
75129;SDS011;63703;44.716;37.846;2023-04-21T12:10:11;9.25;;;3.90;;
75129;SDS011;63703;44.716;37.846;2023-04-21T12:12:45;9.30;;;2.35;;
75129;SDS011;63703;44.716;37.846;2023-04-21T12:15:12;13.25;;;3.60;;
75129;SDS011;63703;44.716;37.846;2023-04-21T12:17:44;12.32;;;3.60;;
75129;SDS011;63703;44.716;37.846;2023-04-21T12:20:11;10.82;;;2.03;;
75129;SDS011;63703;44.716;37.846;2023-04-21T12:22:40;6.00;;;2.45;;
75129;SDS011;63703;44.716;37.846;2023-04-21T12:25:06;8.60;;;1.63;;
75129;SDS011;63703;44.716;37.846;2023-04-21T12:27:33;9.00;;;1.92;;
75129;SDS011;63703;44.716;37.846;2023-04-21T12:29:59;7.47;;;1.20;;
75129;SDS011;63703;44.716;37.846;2023-04-21T12:32:25;7.63;;;1.45;;
75129;SDS011;63703;44.716;37.846;2023-04-21T12:34:51;7.07;;;1.02;;
75129;SDS011;63703;44.716;37.846;2023-04-21T12:37:17;10.23;;;0.88;;
75129;SDS011;63703;44.716;37.846;2023-04-21T12:39:43;5.20;;;1.17;;
75129;SDS011;63703;44.716;37.846;2023-04-21T12:42:09;14.77;;;1.30;;
75129;SDS011;63703;44.716;37.846;2023-04-21T12:44:35;4.80;;;1.45;;
75129;SDS011;63703;44.716;37.846;2023-04-21T12:47:02;9.63;;;1.00;;
75129;SDS011;63703;44.716;37.846;2023-04-21T12:49:28;5.20;;;0.80;;
75129;SDS011;63703;44.716;37.846;2023-04-21T12:51:54;9.98;;;1.08;;
75129;SDS011;63703;44.716;37.846;2023-04-21T12:54:20;7.55;;;1.92;;
75129;SDS011;63703;44.716;37.846;2023-04-21T12:56:46;8.77;;;1.90;;
75129;SDS011;63703;44.716;37.846;2023-04-21T12:59:12;7.97;;;1.63;;
75129;SDS011;63703;44.716;37.846;2023-04-21T13:01:38;7.72;;;1.15;;
75129;SDS011;63703;44.716;37.846;2023-04-21T13:04:06;5.82;;;1.33;;
75129;SDS011;63703;44.716;37.846;2023-04-21T13:06:33;9.68;;;1.90;;
75129;SDS011;63703;44.716;37.846;2023-04-21T13:08:59;7.80;;;1.83;;
75129;SDS011;63703;44.716;37.846;2023-04-21T13:11:25;10.88;;;1.50;;
75129;SDS011;63703;44.716;37.846;2023-04-21T13:13:50;8.48;;;1.95;;
75129;SDS011;63703;44.716;37.846;2023-04-21T13:16:16;9.32;;;2.13;;
75129;SDS011;63703;44.716;37.846;2023-04-21T13:18:43;11.70;;;2.28;;
75129;SDS011;63703;44.716;37.846;2023-04-21T13:21:10;14.32;;;3.60;;
75129;SDS011;63703;44.716;37.846;2023-04-21T13:23:36;8.27;;;1.85;;
75129;SDS011;63703;44.716;37.846;2023-04-21T13:26:02;10.07;;;2.45;;
75129;SDS011;63703;44.716;37.846;2023-04-21T13:28:29;11.05;;;2.55;;
75129;SDS011;63703;44.716;37.846;2023-04-21T13:30:55;13.30;;;1.92;;
75129;SDS011;63703;44.716;37.846;2023-04-21T13:33:21;12.15;;;3.00;;
75129;SDS011;63703;44.716;37.846;2023-04-21T13:35:47;13.50;;;2.42;;
75129;SDS011;63703;44.716;37.846;2023-04-21T13:38:13;13.25;;;2.15;;
75129;SDS011;63703;44.716;37.846;2023-04-21T13:40:39;9.65;;;2.65;;
75129;SDS011;63703;44.716;37.846;2023-04-21T13:43:05;12.27;;;2.83;;
75129;SDS011;63703;44.716;37.846;2023-04-21T13:45:31;20.58;;;3.47;;
75129;SDS011;63703;44.716;37.846;2023-04-21T13:47:57;12.95;;;1.92;;
75129;SDS011;63703;44.716;37.846;2023-04-21T13:50:23;12.10;;;2.75;;
75129;SDS011;63703;44.716;37.846;2023-04-21T13:52:52;11.20;;;3.25;;
75129;SDS011;63703;44.716;37.846;2023-04-21T13:55:18;16.17;;;4.72;;
75129;SDS011;63703;44.716;37.846;2023-04-21T13:57:45;11.18;;;3.08;;
75129;SDS011;63703;44.716;37.846;2023-04-21T14:00:11;12.73;;;3.70;;
75129;SDS011;63703;44.716;37.846;2023-04-21T14:02:40;13.50;;;2.67;;
75129;SDS011;63703;44.716;37.846;2023-04-21T14:05:06;18.23;;;4.93;;
75129;SDS011;63703;44.716;37.846;2023-04-21T14:07:32;12.68;;;3.65;;
75129;SDS011;63703;44.716;37.846;2023-04-21T14:10:00;12.30;;;4.18;;
75129;SDS011;63703;44.716;37.846;2023-04-21T14:12:26;16.30;;;4.43;;
75129;SDS011;63703;44.716;37.846;2023-04-21T14:14:51;15.73;;;3.45;;
75129;SDS011;63703;44.716;37.846;2023-04-21T14:17:17;14.95;;;3.15;;
75129;SDS011;63703;44.716;37.846;2023-04-21T14:19:43;10.07;;;2.42;;
75129;SDS011;63703;44.716;37.846;2023-04-21T14:22:09;14.73;;;2.58;;
75129;SDS011;63703;44.716;37.846;2023-04-21T14:24:35;10.70;;;2.58;;
75129;SDS011;63703;44.716;37.846;2023-04-21T14:27:01;12.65;;;2.47;;
75129;SDS011;63703;44.716;37.846;2023-04-21T14:29:27;12.00;;;3.47;;
75129;SDS011;63703;44.716;37.846;2023-04-21T14:31:53;11.50;;;2.78;;
75129;SDS011;63703;44.716;37.846;2023-04-21T14:34:22;10.20;;;2.80;;
75129;SDS011;63703;44.716;37.846;2023-04-21T14:36:50;11.48;;;2.63;;
75129;SDS011;63703;44.716;37.846;2023-04-21T14:39:16;7.78;;;1.50;;
75129;SDS011;63703;44.716;37.846;2023-04-21T14:41:42;11.30;;;1.95;;
75129;SDS011;63703;44.716;37.846;2023-04-21T14:44:08;11.38;;;1.80;;
75129;SDS011;63703;44.716;37.846;2023-04-21T14:46:34;10.90;;;1.67;;